SBOSBO OSR / LKMT
Speedbird OnlineSpeedbird Online OSR / LKMT

Ostrava Leos Janáček Airport
14:01 3°C

Location Ostrava, Czech Republic
Latitude: 49.6963005065918
Longitude: 18.111099243164062
Web Airport Website | Wikipedia
Altitude 257 Meter / 844 Feet
Distance 1,281 KM / 796 Miles
from London.
Time Zone UTC +1 hours (Europe/Prague)
Codes IATA: OSR
ICAO: LKMT
Currency £1 equals 0.00
Runways
RunwayLength (m)Surface
043500Concrete
223500Concrete
Radio
TypeDescriptionFrequency
APP118.375
APPOSTRAVA APP119.375
APP128.525
ATISATIS118.055
TWRTWR120.805
Live ATC
METAR LKMT 311230Z 22009KT 9999 OVC041 03/M01 Q1016 NOSIG
TAF TAF LKMT 311100Z 3112/0112 23009KT 9999 BKN040 TEMPO 3116/0112 24014G28KT TEMPO 3112/0112 2000 SHSNRA SCT005TCU BKN007
Weather As Of 31 Jan 2023 14:01
Description Overcast clouds
Wind 17 km/h from South-West (220°)
Cloud Cover 100%
Precipitation Rain: none, Snow: none
Sunrise 07:22
Sunset 16:39
Rotations During the last 90 days there were
4 flights from LHR
2 flights to LHR



Support Speedbird Online

© 2017-2023 Speedbird Online